createdAt,value
2022-10-15T00:01:26.319Z,8.50
2022-10-15T00:03:54.087Z,8.45
2022-10-15T00:06:21.889Z,8.46
2022-10-15T00:08:49.450Z,8.47
2022-10-15T00:11:20.472Z,8.53
2022-10-15T00:13:49.258Z,8.47
2022-10-15T00:16:21.367Z,8.51
2022-10-15T00:18:49.552Z,8.43
2022-10-15T00:21:18.958Z,8.39
2022-10-15T00:23:47.780Z,8.46
2022-10-15T00:26:21.978Z,8.52
2022-10-15T00:28:52.276Z,8.48
2022-10-15T00:31:27.251Z,8.53
2022-10-15T00:33:58.100Z,8.51
2022-10-15T00:36:28.545Z,8.44
2022-10-15T00:38:56.412Z,8.56
2022-10-15T00:41:31.333Z,8.56
2022-10-15T00:44:21.143Z,8.58
2022-10-15T00:46:51.703Z,8.60
2022-10-15T00:49:30.387Z,8.62
2022-10-15T00:52:02.548Z,8.63
2022-10-15T00:54:34.794Z,8.66
2022-10-15T00:57:02.352Z,8.61
2022-10-15T00:59:31.426Z,8.62
2022-10-15T01:02:01.146Z,8.59
2022-10-15T01:04:30.888Z,8.65
2022-10-15T01:06:58.533Z,8.62
2022-10-15T01:09:26.436Z,8.63
2022-10-15T01:11:56.151Z,8.63
2022-10-15T01:14:40.171Z,8.73
2022-10-15T01:17:19.567Z,8.72
2022-10-15T01:20:24.939Z,8.80
2022-10-15T01:23:22.414Z,8.79
2022-10-15T01:26:31.230Z,8.78
2022-10-15T01:29:04.351Z,8.69
2022-10-15T01:32:17.977Z,8.75
2022-10-15T01:34:51.594Z,8.65
2022-10-15T01:37:36.661Z,8.59
2022-10-15T01:40:26.076Z,8.60
2022-10-15T01:43:03.903Z,8.62
2022-10-15T01:45:54.778Z,8.59
2022-10-15T01:48:45.730Z,8.59
2022-10-15T01:51:15.595Z,8.59
2022-10-15T01:53:44.932Z,8.55
2022-10-15T01:56:19.377Z,8.63
2022-10-15T01:58:49.852Z,8.63
2022-10-15T02:01:18.324Z,8.59
2022-10-15T02:03:51.163Z,8.53
2022-10-15T02:06:42.247Z,8.58
2022-10-15T02:09:18.690Z,8.58
2022-10-15T02:12:13.800Z,8.60
2022-10-15T02:14:46.411Z,8.56
2022-10-15T02:17:16.729Z,8.52
2022-10-15T02:20:20.749Z,8.55
2022-10-15T02:23:41.077Z,8.64
2022-10-15T02:26:11.633Z,8.56
2022-10-15T02:28:45.228Z,8.49
2022-10-15T02:31:16.359Z,8.48
2022-10-15T02:33:45.197Z,8.51
2022-10-15T02:36:15.367Z,8.56
2022-10-15T02:38:45.181Z,8.56
2022-10-15T02:41:13.508Z,8.55
2022-10-15T02:43:41.917Z,8.54
2022-10-15T02:46:14.938Z,8.50
2022-10-15T02:48:44.605Z,8.56
2022-10-15T02:51:12.127Z,8.54
2022-10-15T02:53:39.545Z,8.55
2022-10-15T02:56:07.230Z,8.57
2022-10-15T02:58:34.931Z,8.53
2022-10-15T03:01:02.850Z,8.52
2022-10-15T03:03:30.383Z,8.56
2022-10-15T03:05:57.865Z,8.50
2022-10-15T03:08:25.365Z,8.54
2022-10-15T03:10:53.025Z,8.48
2022-10-15T03:13:20.829Z,8.57
2022-10-15T03:15:52.303Z,8.59
2022-10-15T03:18:22.226Z,8.59
2022-10-15T03:20:54.963Z,8.57
2022-10-15T03:23:23.709Z,8.59
2022-10-15T03:25:59.368Z,8.63
2022-10-15T03:28:29.672Z,8.56
2022-10-15T03:30:58.010Z,8.60
2022-10-15T03:33:28.586Z,8.59
2022-10-15T03:35:57.519Z,8.54
2022-10-15T03:38:25.656Z,8.54
2022-10-15T03:40:54.259Z,8.60
2022-10-15T03:43:41.933Z,8.64
2022-10-15T03:46:11.194Z,8.61
2022-10-15T03:48:43.207Z,8.61
2022-10-15T03:51:15.654Z,8.54
2022-10-15T03:53:47.973Z,8.61
2022-10-15T03:56:16.096Z,8.64
2022-10-15T03:58:43.657Z,8.63
2022-10-15T04:01:17.800Z,8.61
2022-10-15T04:03:45.867Z,8.61
2022-10-15T04:06:16.683Z,8.60
2022-10-15T04:08:45.483Z,8.59
2022-10-15T04:11:21.182Z,8.61
2022-10-15T04:13:58.877Z,8.54
2022-10-15T04:16:26.519Z,8.59
2022-10-15T04:18:53.958Z,8.59
2022-10-15T04:21:21.663Z,8.54
2022-10-15T04:23:56.215Z,8.62
2022-10-15T04:26:32.854Z,8.64
2022-10-15T04:29:01.678Z,8.60
2022-10-15T04:31:29.999Z,8.69
2022-10-15T04:33:58.883Z,8.65
2022-10-15T04:36:27.675Z,8.69
2022-10-15T04:39:00.779Z,8.75
2022-10-15T04:41:42.913Z,8.77
2022-10-15T04:44:21.730Z,8.75
2022-10-15T04:46:54.680Z,8.76
2022-10-15T04:49:42.524Z,8.80
2022-10-15T04:52:26.638Z,8.73
2022-10-15T04:54:58.741Z,8.80
2022-10-15T04:57:27.343Z,8.74
2022-10-15T04:59:57.720Z,8.74
2022-10-15T05:02:28.640Z,8.76
2022-10-15T05:05:09.775Z,8.83
2022-10-15T05:07:46.863Z,8.86
2022-10-15T05:10:15.288Z,8.89
2022-10-15T05:15:15.531Z,8.91
2022-10-15T05:17:45.799Z,8.94
2022-10-15T05:20:13.270Z,8.95
2022-10-15T05:22:40.773Z,8.96
2022-10-15T05:25:15.678Z,9.00
2022-10-15T05:27:43.268Z,9.00
2022-10-15T05:30:13.588Z,8.98
2022-10-15T05:32:53.035Z,9.02
2022-10-15T05:35:22.149Z,9.07
2022-10-15T05:38:04.728Z,9.11
2022-10-15T05:40:32.274Z,9.16
2022-10-15T05:43:05.408Z,9.15
2022-10-15T05:45:32.939Z,9.08
2022-10-15T05:48:05.306Z,9.16
2022-10-15T05:50:33.251Z,9.18
2022-10-15T05:53:02.923Z,9.23
2022-10-15T05:55:33.137Z,9.25
2022-10-15T05:58:04.829Z,9.33
2022-10-15T06:00:32.975Z,9.31
2022-10-15T06:03:00.806Z,9.37
2022-10-15T06:05:28.251Z,9.37
2022-10-15T06:07:56.792Z,9.37
2022-10-15T06:10:24.398Z,9.33
2022-10-15T06:12:51.895Z,9.41
2022-10-15T06:15:19.913Z,9.39
2022-10-15T06:17:47.446Z,9.36
2022-10-15T06:20:14.944Z,9.42
2022-10-15T06:22:42.380Z,9.40
2022-10-15T06:25:10.059Z,9.46
2022-10-15T06:27:38.706Z,9.48
2022-10-15T06:30:06.800Z,9.47
2022-10-15T06:32:34.390Z,9.48
2022-10-15T06:35:01.859Z,9.50
2022-10-15T06:37:30.529Z,9.56
2022-10-15T06:39:59.424Z,9.66
2022-10-15T06:42:26.962Z,9.75
2022-10-15T06:44:56.249Z,9.79
2022-10-15T06:47:26.561Z,9.81
2022-10-15T06:49:54.175Z,9.85
2022-10-15T06:52:22.020Z,9.89
2022-10-15T06:54:49.679Z,9.94
2022-10-15T06:57:19.514Z,9.93
2022-10-15T06:59:46.994Z,9.98
2022-10-15T07:02:14.413Z,10.03
2022-10-15T07:04:41.950Z,10.08
2022-10-15T07:07:09.415Z,10.08
2022-10-15T07:09:36.963Z,10.15
2022-10-15T07:12:04.894Z,10.14
2022-10-15T07:14:32.598Z,10.12
2022-10-15T07:17:00.438Z,10.17
2022-10-15T07:19:29.706Z,10.13
2022-10-15T07:21:57.228Z,10.24
2022-10-15T07:24:24.666Z,10.28
2022-10-15T07:26:52.257Z,10.32
2022-10-15T07:29:19.671Z,10.29
2022-10-15T07:31:48.525Z,10.32
2022-10-15T07:34:17.171Z,10.39
2022-10-15T07:36:44.711Z,10.37
2022-10-15T07:39:12.179Z,10.36
2022-10-15T07:41:39.837Z,10.45
2022-10-15T07:44:07.246Z,10.45
2022-10-15T07:46:34.679Z,10.51
2022-10-15T07:49:02.287Z,10.67
2022-10-15T07:51:29.682Z,10.64
2022-10-15T07:53:57.165Z,10.67
2022-10-15T07:56:24.742Z,10.65
2022-10-15T07:58:52.154Z,10.55
2022-10-15T08:01:21.567Z,10.40
2022-10-15T08:03:49.052Z,10.44
2022-10-15T08:10:12.088Z,10.48
2022-10-15T08:12:42.739Z,10.60
2022-10-15T08:15:10.810Z,10.69
2022-10-15T08:17:38.679Z,10.77
2022-10-15T08:20:06.807Z,10.88
2022-10-15T08:22:34.672Z,10.98
2022-10-15T08:25:02.332Z,11.06
2022-10-15T08:27:31.119Z,11.03
2022-10-15T08:29:58.610Z,10.96
2022-10-15T08:32:26.191Z,11.02
2022-10-15T08:34:53.899Z,10.99
2022-10-15T08:37:21.511Z,10.86
2022-10-15T08:39:49.096Z,10.94
2022-10-15T08:42:23.556Z,10.97
2022-10-15T08:44:56.962Z,10.94
2022-10-15T08:47:29.062Z,10.94
2022-10-15T08:50:01.472Z,10.96
2022-10-15T08:52:44.099Z,11.04
2022-10-15T08:55:14.864Z,11.04
2022-10-15T08:58:13.994Z,11.17
2022-10-15T09:00:51.981Z,11.28
2022-10-15T09:03:41.050Z,11.36
2022-10-15T09:06:30.883Z,11.35
2022-10-15T09:09:30.759Z,11.37
2022-10-15T09:12:07.345Z,11.38
2022-10-15T09:14:39.006Z,11.35
2022-10-15T09:17:28.060Z,11.49
2022-10-15T09:19:58.016Z,11.46
2022-10-15T09:22:28.830Z,11.55
2022-10-15T09:24:57.021Z,11.60
2022-10-15T09:27:35.543Z,11.66
2022-10-15T09:30:23.842Z,11.66
2022-10-15T09:33:03.049Z,11.64
2022-10-15T09:35:43.146Z,11.54
2022-10-15T09:38:32.053Z,11.57
2022-10-15T09:41:17.695Z,11.50
2022-10-15T09:43:49.194Z,11.44
2022-10-15T09:46:17.480Z,11.33
2022-10-15T09:49:08.754Z,11.33
2022-10-15T09:51:50.427Z,11.30
2022-10-15T09:54:29.511Z,11.30
2022-10-15T09:56:57.906Z,11.26
2022-10-15T09:59:25.991Z,11.25
2022-10-15T10:02:02.742Z,11.33
2022-10-15T10:04:34.996Z,11.28
2022-10-15T10:07:07.541Z,11.22
2022-10-15T10:09:50.926Z,11.24
2022-10-15T10:12:22.947Z,11.28
2022-10-15T10:14:59.207Z,11.27
2022-10-15T10:17:29.216Z,11.33
2022-10-15T10:20:19.939Z,11.46
2022-10-15T10:22:53.255Z,11.47
2022-10-15T10:25:26.840Z,11.48
2022-10-15T10:28:17.309Z,11.60
2022-10-15T10:30:56.020Z,11.55
2022-10-15T10:33:35.979Z,11.48
2022-10-15T10:36:05.613Z,11.40
2022-10-15T10:38:38.239Z,11.42
2022-10-15T10:41:09.850Z,11.44
2022-10-15T10:43:40.132Z,11.40
2022-10-15T10:46:14.943Z,11.45
2022-10-15T10:48:52.805Z,11.37
2022-10-15T10:51:28.282Z,11.41
2022-10-15T10:54:01.188Z,11.43
2022-10-15T10:56:38.732Z,11.34
2022-10-15T10:59:32.307Z,11.48
2022-10-15T11:01:59.972Z,11.35
2022-10-15T11:04:31.832Z,11.47
2022-10-15T11:07:21.067Z,11.49
2022-10-15T11:09:58.063Z,11.69
2022-10-15T11:12:58.948Z,11.82
2022-10-15T11:15:47.754Z,11.92
2022-10-15T11:18:25.327Z,11.96
2022-10-15T11:21:30.098Z,12.07
2022-10-15T11:24:03.664Z,12.01
2022-10-15T11:27:09.448Z,11.99
2022-10-15T11:30:05.365Z,12.01
2022-10-15T11:33:05.562Z,12.03
2022-10-15T11:36:10.457Z,12.08
2022-10-15T11:38:52.125Z,12.00
2022-10-15T11:41:47.284Z,12.08
2022-10-15T11:44:34.660Z,11.99
2022-10-15T11:47:22.569Z,11.94
2022-10-15T11:50:10.123Z,12.04
2022-10-15T11:52:48.064Z,12.03
2022-10-15T11:55:30.234Z,12.07
2022-10-15T11:58:01.347Z,12.06
2022-10-15T12:00:40.952Z,12.03
2022-10-15T12:03:22.589Z,12.16
2022-10-15T12:05:59.765Z,12.14
2022-10-15T12:08:35.994Z,12.03
2022-10-15T12:11:29.870Z,12.18
2022-10-15T12:14:12.258Z,12.21
2022-10-15T12:17:06.618Z,12.45
2022-10-15T12:19:54.703Z,12.46
2022-10-15T12:22:40.251Z,12.58
2022-10-15T12:25:33.639Z,12.75
2022-10-15T12:28:18.763Z,12.89
2022-10-15T12:30:58.458Z,12.96
2022-10-15T12:33:35.062Z,12.94
2022-10-15T12:36:11.050Z,13.07
2022-10-15T12:38:50.768Z,12.94
2022-10-15T12:41:18.399Z,12.85
2022-10-15T12:44:05.417Z,12.69
2022-10-15T12:46:39.378Z,12.59
2022-10-15T12:49:32.695Z,12.53
2022-10-15T12:52:01.971Z,12.16
2022-10-15T12:54:40.164Z,12.02
2022-10-15T12:57:46.073Z,11.96
2022-10-15T13:00:33.643Z,11.75
2022-10-15T13:03:19.106Z,11.70
2022-10-15T13:05:47.921Z,11.49
2022-10-15T13:08:25.691Z,11.47
2022-10-15T13:11:02.021Z,11.40
2022-10-15T13:13:32.637Z,11.19
2022-10-15T13:16:07.742Z,11.24
2022-10-15T13:18:36.373Z,11.19
2022-10-15T13:21:04.677Z,11.11
2022-10-15T13:23:34.573Z,11.12
2022-10-15T13:26:20.708Z,11.12
2022-10-15T13:28:50.648Z,10.95
2022-10-15T13:31:30.405Z,11.05
2022-10-15T13:34:14.358Z,11.03
2022-10-15T13:36:42.328Z,11.00
2022-10-15T13:39:24.138Z,11.01
2022-10-15T13:41:52.304Z,10.97
2022-10-15T13:44:24.130Z,11.02
2022-10-15T13:46:51.966Z,10.96
2022-10-15T13:49:21.505Z,10.89
2022-10-15T13:51:53.332Z,10.96
2022-10-15T13:54:25.058Z,10.85
2022-10-15T13:56:59.443Z,10.89
2022-10-15T13:59:29.823Z,10.79
2022-10-15T14:02:04.539Z,10.74
2022-10-15T14:04:33.215Z,10.70
2022-10-15T14:07:18.470Z,10.63
2022-10-15T14:09:47.247Z,10.57
2022-10-15T14:12:14.894Z,10.51
2022-10-15T14:14:48.183Z,10.46
2022-10-15T14:17:26.974Z,10.51
2022-10-15T14:20:25.742Z,10.43
2022-10-15T14:22:49.646Z,10.37
2022-10-15T14:25:23.588Z,10.37
2022-10-15T14:27:52.214Z,10.38
2022-10-15T14:30:34.495Z,10.36
2022-10-15T14:33:02.063Z,10.28
2022-10-15T14:35:34.240Z,10.29
2022-10-15T14:38:16.465Z,10.25
2022-10-15T14:41:06.369Z,10.27
2022-10-15T14:43:38.392Z,10.21
2022-10-15T14:46:13.357Z,10.23
2022-10-15T14:48:43.619Z,10.22
2022-10-15T14:51:25.287Z,10.25
2022-10-15T14:53:53.873Z,10.16
2022-10-15T14:56:24.507Z,10.19
2022-10-15T14:58:56.918Z,10.20
2022-10-15T15:01:25.330Z,10.15
2022-10-15T15:03:55.211Z,10.15
2022-10-15T15:06:23.357Z,10.13
2022-10-15T15:08:51.051Z,10.12
2022-10-15T15:11:23.003Z,10.22
2022-10-15T15:13:51.652Z,10.16
2022-10-15T15:16:19.475Z,10.18
2022-10-15T15:18:49.038Z,10.16
2022-10-15T15:21:24.022Z,10.15
2022-10-15T15:23:51.706Z,10.03
2022-10-15T15:26:19.288Z,10.14
2022-10-15T15:28:46.781Z,10.12
2022-10-15T15:31:17.922Z,10.09
2022-10-15T15:33:46.126Z,10.04
2022-10-15T15:36:19.088Z,10.02
2022-10-15T15:38:51.610Z,10.03
2022-10-15T15:41:21.850Z,9.99
2022-10-15T15:43:50.008Z,9.93
2022-10-15T15:46:17.726Z,9.86
2022-10-15T15:48:54.419Z,9.86
2022-10-15T15:51:25.846Z,9.86
2022-10-15T15:53:53.690Z,9.84
2022-10-15T15:56:21.310Z,9.82
2022-10-15T15:58:50.453Z,9.80
2022-10-15T16:01:19.127Z,9.77
2022-10-15T16:03:47.446Z,9.70
2022-10-15T16:06:15.302Z,9.65
2022-10-15T16:08:42.883Z,9.60
2022-10-15T16:11:10.387Z,9.61
2022-10-15T16:13:38.103Z,9.52
2022-10-15T16:16:05.899Z,9.55
2022-10-15T16:18:33.414Z,9.52
2022-10-15T16:21:00.928Z,9.46
2022-10-15T16:23:28.461Z,9.55
2022-10-15T16:25:57.596Z,9.54
2022-10-15T16:28:25.179Z,9.48
2022-10-15T16:30:52.640Z,9.48
2022-10-15T16:33:20.307Z,9.43
2022-10-15T16:35:53.919Z,9.42
2022-10-15T16:38:21.415Z,9.36
2022-10-15T16:40:48.815Z,9.43
2022-10-15T16:43:16.326Z,9.39
2022-10-15T16:45:43.725Z,9.44
2022-10-15T16:48:11.729Z,9.38
2022-10-15T16:50:39.126Z,9.39
2022-10-15T16:53:06.542Z,9.34
2022-10-15T16:55:34.118Z,9.38
2022-10-15T16:58:01.539Z,9.38
2022-10-15T17:00:29.240Z,9.28
2022-10-15T17:02:56.772Z,9.38
2022-10-15T17:05:24.340Z,9.34
2022-10-15T17:07:51.846Z,9.26
2022-10-15T17:10:25.637Z,9.36
2022-10-15T17:12:53.210Z,9.34
2022-10-15T17:15:20.695Z,9.28
2022-10-15T17:17:48.788Z,9.31
2022-10-15T17:20:16.326Z,9.24
2022-10-15T17:22:43.875Z,9.23
2022-10-15T17:25:11.277Z,9.21
2022-10-15T17:27:38.950Z,9.25
2022-10-15T17:30:07.161Z,9.20
2022-10-15T17:32:34.662Z,9.26
2022-10-15T17:35:03.994Z,9.23
2022-10-15T17:37:32.527Z,9.20
2022-10-15T17:40:00.135Z,9.21
2022-10-15T17:42:28.304Z,9.19
2022-10-15T17:44:55.929Z,9.22
2022-10-15T17:47:23.893Z,9.18
2022-10-15T17:49:51.672Z,9.16
2022-10-15T17:52:19.291Z,9.11
2022-10-15T17:54:47.293Z,9.16
2022-10-15T17:57:14.770Z,9.16
2022-10-15T17:59:42.262Z,9.05
2022-10-15T18:02:10.368Z,9.13
2022-10-15T18:04:40.248Z,9.09
2022-10-15T18:07:08.067Z,9.10
2022-10-15T18:09:36.133Z,9.08
2022-10-15T18:12:03.801Z,9.13
2022-10-15T18:14:34.276Z,9.07
2022-10-15T18:17:02.036Z,9.11
2022-10-15T18:19:29.808Z,9.07
2022-10-15T18:21:57.825Z,9.07
2022-10-15T18:24:25.373Z,9.06
2022-10-15T18:26:53.276Z,9.02
2022-10-15T18:29:22.584Z,9.06
2022-10-15T18:31:54.736Z,8.96
2022-10-15T18:34:24.092Z,9.02
2022-10-15T18:36:51.536Z,8.92
2022-10-15T18:39:20.063Z,8.97
2022-10-15T18:41:47.761Z,8.95
2022-10-15T18:44:16.936Z,8.98
2022-10-15T18:46:45.718Z,8.95
2022-10-15T18:49:15.863Z,8.98
2022-10-15T18:51:46.238Z,8.93
2022-10-15T18:54:13.759Z,8.88
2022-10-15T18:56:41.632Z,8.88
2022-10-15T18:59:09.444Z,8.82
2022-10-15T19:01:41.717Z,8.75
2022-10-15T19:04:14.781Z,8.82
2022-10-15T19:06:50.705Z,8.72
2022-10-15T19:09:26.465Z,8.70
2022-10-15T19:11:56.037Z,8.64
2022-10-15T19:14:25.594Z,8.61
2022-10-15T19:16:53.394Z,8.58
2022-10-15T19:19:22.510Z,8.58
2022-10-15T19:21:51.396Z,8.62
2022-10-15T19:24:21.462Z,8.54
2022-10-15T19:26:51.229Z,8.50
2022-10-15T19:29:19.214Z,8.53
2022-10-15T19:31:48.943Z,8.54
2022-10-15T19:34:16.466Z,8.59
2022-10-15T19:36:47.704Z,8.57
2022-10-15T19:39:21.398Z,8.59
2022-10-15T19:41:49.828Z,8.49
2022-10-15T19:44:24.887Z,8.46
2022-10-15T19:46:52.891Z,8.47
2022-10-15T19:49:21.124Z,8.44
2022-10-15T19:51:49.730Z,8.48
2022-10-15T19:54:17.734Z,8.42
2022-10-15T19:56:45.338Z,8.44
2022-10-15T19:59:16.963Z,8.46
2022-10-15T20:01:44.523Z,8.36
2022-10-15T20:04:12.084Z,8.31
2022-10-15T20:06:39.664Z,8.27
2022-10-15T20:09:08.846Z,8.39
2022-10-15T20:11:37.443Z,8.33
2022-10-15T20:14:05.604Z,8.37
2022-10-15T20:16:33.667Z,8.30
2022-10-15T20:19:03.797Z,8.25
2022-10-15T20:21:32.205Z,8.27
2022-10-15T20:24:04.271Z,8.28
2022-10-15T20:26:32.758Z,8.22
2022-10-15T20:29:00.433Z,8.26
2022-10-15T20:31:32.795Z,8.29
2022-10-15T20:34:01.254Z,8.28
2022-10-15T20:36:28.893Z,8.28
2022-10-15T20:38:57.578Z,8.21
2022-10-15T20:41:25.167Z,8.25
2022-10-15T20:43:55.124Z,8.26
2022-10-15T20:46:33.084Z,8.23
2022-10-15T20:49:08.480Z,8.21
2022-10-15T20:51:39.856Z,8.20
2022-10-15T20:54:07.949Z,8.17
2022-10-15T20:56:35.581Z,8.29
2022-10-15T20:59:05.154Z,8.28
2022-10-15T21:01:34.682Z,8.25
2022-10-15T21:04:02.702Z,8.28
2022-10-15T21:06:30.918Z,8.30
2022-10-15T21:08:58.761Z,8.27
2022-10-15T21:11:26.400Z,8.26
2022-10-15T21:13:53.885Z,8.23
2022-10-15T21:16:24.506Z,8.32
2022-10-15T21:18:55.206Z,8.23
2022-10-15T21:21:22.603Z,8.23
2022-10-15T21:23:50.095Z,8.29
2022-10-15T21:26:18.711Z,8.30
2022-10-15T21:28:46.567Z,8.30
2022-10-15T21:31:16.487Z,8.26
2022-10-15T21:33:46.168Z,8.30
2022-10-15T21:36:21.707Z,8.25
2022-10-15T21:38:54.089Z,8.22
2022-10-15T21:41:23.045Z,8.25
2022-10-15T21:43:50.928Z,8.21
2022-10-15T21:46:18.613Z,8.12
2022-10-15T21:48:46.538Z,8.10
2022-10-15T21:51:16.350Z,8.09
2022-10-15T21:53:44.390Z,8.11
2022-10-15T21:56:12.185Z,8.15
2022-10-15T21:58:41.281Z,8.04
2022-10-15T22:01:14.610Z,8.08
2022-10-15T22:03:45.796Z,8.07
2022-10-15T22:06:13.975Z,8.03
2022-10-15T22:08:41.694Z,8.03
2022-10-15T22:14:03.701Z,8.06
2022-10-15T22:16:33.936Z,7.99
2022-10-15T22:19:02.077Z,8.06
2022-10-15T22:21:35.194Z,7.95
2022-10-15T22:24:08.691Z,7.97
2022-10-15T22:26:39.182Z,7.95
2022-10-15T22:29:09.309Z,7.97
2022-10-15T22:31:36.931Z,7.87
2022-10-15T22:34:04.356Z,7.91
2022-10-15T22:36:31.994Z,7.90
2022-10-15T22:39:02.430Z,7.94
2022-10-15T22:41:32.877Z,7.89
2022-10-15T22:44:00.839Z,7.82
2022-10-15T22:46:28.360Z,7.87
2022-10-15T22:48:55.919Z,7.88
2022-10-15T22:51:23.340Z,7.84
2022-10-15T22:53:54.585Z,7.84
2022-10-15T22:56:22.734Z,7.83
2022-10-15T22:58:50.668Z,7.71
2022-10-15T23:01:23.751Z,7.68
2022-10-15T23:03:54.054Z,7.69
2022-10-15T23:06:22.787Z,7.69
2022-10-15T23:08:50.495Z,7.65
2022-10-15T23:11:23.731Z,7.71
2022-10-15T23:13:56.679Z,7.71
2022-10-15T23:16:29.356Z,7.64
2022-10-15T23:18:59.731Z,7.66
2022-10-15T23:21:34.835Z,7.67
2022-10-15T23:24:02.597Z,7.57
2022-10-15T23:26:30.599Z,7.56
2022-10-15T23:28:59.826Z,7.59
2022-10-15T23:31:30.317Z,7.55
2022-10-15T23:33:59.077Z,7.50
2022-10-15T23:36:28.152Z,7.48
2022-10-15T23:39:01.198Z,7.53
2022-10-15T23:41:29.759Z,7.46
2022-10-15T23:43:57.686Z,7.47
2022-10-15T23:46:25.416Z,7.45
2022-10-15T23:48:52.858Z,7.41
2022-10-15T23:51:29.301Z,7.40
2022-10-15T23:53:59.061Z,7.27
2022-10-15T23:56:27.485Z,7.30
2022-10-15T23:58:57.759Z,7.30
